Flight Track Log - Related Links

Times and Time Zones

All times are in EDT time to prevent confusion due to time zone crossing. See the SWA755 flight status page for this flight to view local times or setup timezone preferences in your user account.

Time Position Orientation Groundspeed Altitude Reporting Facility
EDT Latitude Longitude Course Direction KTS MPH feet Rate Location/Type
Sun 06:42:05 PM 37.6333 -122.3667 360° North 159 183 1,000  Level Northern Cal TRACON
Sun 06:43:05 PM 37.7000 -122.3667 360° North 232 267 2,400 1,700 Climbing Northern Cal TRACON
Sun 06:44:05 PM 37.7333 -122.4167 310° West 260 299 4,400 2,537 Climbing Northern Cal TRACON
Sun 06:46:26 PM 37.5964 -122.5581 219° Southwest 278 320 10,900 2,822 Climbing Oakland Center
Sun 06:47:27 PM 37.4900 -122.5828 190° South 335 386 13,900 2,683 Climbing Oakland Center
Sun 06:48:29 PM 37.3950 -122.5803 179° South 341 392 16,400 2,341 Climbing Oakland Center
Sun 06:49:30 PM 37.2950 -122.5778 179° South 358 412 18,700 2,098 Climbing Oakland Center
Sun 06:50:32 PM 37.1928 -122.5758 179° South 368 423 20,700 1,854 Climbing Oakland Center
Sun 06:51:33 PM 37.0969 -122.5189 155° Southeast 396 456 22,500 1,610 Climbing Oakland Center
Sun 06:52:35 PM 37.0056 -122.4392 145° Southeast 400 460 24,000 1,659 Climbing Oakland Center
Sun 06:53:36 PM 36.9117 -122.3531 144° Southeast 417 480 25,900 1,672 Climbing Oakland Center
Sun 06:54:37 PM 36.8181 -122.2686 144° Southeast 416 479 27,400 1,463 Climbing Oakland Center
Sun 06:55:39 PM 36.7014 -122.1647 144° Southeast 428 493 28,900 1,659 Climbing Oakland Center
Sun 06:56:40 PM 36.6014 -122.0775 145° Southeast 437 503 30,800 1,707 Climbing Oakland Center
Sun 06:57:42 PM 36.5081 -121.9919 144° Southeast 423 487 32,400 1,415 Climbing Oakland Center
Sun 06:58:43 PM 36.4264 -121.8906 135° Southeast 415 478 33,700 1,366 Climbing Oakland Center
Sun 06:59:45 PM 36.3456 -121.7683 129° Southeast 421 484 35,200 1,268 Climbing Oakland Center
Sun 07:00:46 PM 36.2722 -121.6572 129° Southeast 417 480 36,300 829 Climbing Oakland Center
Sun 07:01:48 PM 36.1953 -121.5514 132° Southeast 414 476 36,900 341 Climbing Oakland Center
Sun 07:02:49 PM 36.1189 -121.4386 130° Southeast 426 490 37,000 49 Climbing Oakland Center
Sun 07:03:51 PM 36.0403 -121.3272 131° Southeast 429 494 37,000 -48 Level Oakland Center
Sun 07:04:53 PM 35.9642 -121.2156 130° Southeast 427 491 36,900 -49 Descending Oakland Center
Sun 07:05:54 PM 35.8878 -121.1078 131° Southeast 419 482 36,900 49 Level Oakland Center
Sun 07:06:56 PM 35.7975 -120.9794 131° Southeast 416 479 37,000 49 Climbing Oakland Center
Sun 07:07:57 PM 35.7219 -120.8731 131° Southeast 413 475 37,000  Level Oakland Center
Sun 07:08:59 PM 35.6478 -120.7661 130° Southeast 413 475 37,000  Level Oakland Center
Sun 07:10:00 PM 35.5717 -120.6606 132° Southeast 413 475 37,000  Level Oakland Center
Sun 07:11:02 PM 35.4969 -120.5544 131° Southeast 414 476 37,000  Level Oakland Center
Sun 07:12:03 PM 35.4161 -120.4389 131° Southeast 415 478 37,000  Level Oakland Center
Sun 07:13:05 PM 35.3389 -120.3308 131° Southeast 420 483 37,000  Level Oakland Center
Sun 07:14:06 PM 35.2619 -120.2258 132° Southeast 416 479 37,000  Level Oakland Center
Sun 07:15:08 PM 35.1853 -120.1189 131° Southeast 411 473 37,000 -49 Level Oakland Center
Sun 07:16:09 PM 35.1103 -120.0150 131° Southeast 410 472 36,900 -62 Descending Oakland Center
Sun 07:16:45 PM 35.0811 -119.9747 131° Southeast 407 468 36,900 61 Level Los Angeles Center
Sun 07:17:47 PM 35.0042 -119.8706 132° Southeast 411 473 37,000 48 Climbing Los Angeles Center
Sun 07:18:50 PM 34.8978 -119.7247 132° Southeast 411 473 37,000  Level Los Angeles Center
Sun 07:19:51 PM 34.8364 -119.6417 132° Southeast 413 475 37,000  Level Los Angeles Center
Sun 07:20:54 PM 34.7450 -119.5175 132° Southeast 411 473 37,000  Level Los Angeles Center
Sun 07:21:56 PM 34.6689 -119.4114 131° Southeast 414 476 37,000  Level Los Angeles Center
Sun 07:22:58 PM 34.5994 -119.3194 133° Southeast 417 480 37,000  Level Los Angeles Center
Sun 07:24:00 PM 34.5047 -119.1939 132° Southeast 420 483 37,000  Level Los Angeles Center
Sun 07:25:02 PM 34.4283 -119.0908 132° Southeast 415 478 37,000  Level Los Angeles Center
Sun 07:26:04 PM 34.3508 -118.9892 133° Southeast 412 474 37,000  Level Los Angeles Center
Sun 07:27:06 PM 34.2756 -118.8867 132° Southeast 408 470 37,000 -435 Level Los Angeles Center
Sun 07:28:08 PM 34.1822 -118.7636 132° Southeast 412 474 36,100 -816 Descending Los Angeles Center
Sun 07:29:11 PM 34.1031 -118.6578 132° Southeast 423 487 35,300 -720 Descending Los Angeles Center
Sun 07:30:13 PM 34.0381 -118.5719 132° Southeast 430 495 34,600 -871 Descending Los Angeles Center
Sun 07:31:15 PM 33.9394 -118.4408 132° Southeast 439 505 33,500 -1,016 Descending Los Angeles Center
Sun 07:32:17 PM 33.8569 -118.3325 133° Southeast 434 499 32,500 -1,065 Descending Los Angeles Center
Sun 07:33:19 PM 33.7706 -118.2258 134° Southeast 425 489 31,300 -1,355 Descending Los Angeles Center
Sun 07:34:21 PM 33.7447 -118.0828 102° East 431 496 29,700 -1,742 Descending Los Angeles Center
Sun 07:35:23 PM 33.6917 -117.9697 119° Southeast 404 465 27,700 -1,984 Descending Los Angeles Center
Sun 07:36:25 PM 33.5722 -117.9264 163° South 366 421 25,600 -1,839 Descending Los Angeles Center
Sun 07:37:27 PM 33.4853 -117.8611 148° Southeast 375 432 23,900 -1,645 Descending Los Angeles Center
Sun 07:38:29 PM 33.4136 -117.7719 134° Southeast 372 428 22,200 -1,790 Descending Los Angeles Center
Sun 07:39:31 PM 33.3422 -117.6822 134° Southeast 371 427 20,200 -1,968 Descending Los Angeles Center
Sun 07:40:34 PM 33.2753 -117.5964 133° Southeast 357 411 18,100 -1,920 Descending Los Angeles Center
Sun 07:41:36 PM 33.2019 -117.5250 141° Southeast 339 390 16,200 -1,500 Descending Los Angeles Center
Sun 07:42:38 PM 33.1231 -117.4686 149° Southeast 333 383 15,000 -1,161 Descending Los Angeles Center
Sun 07:43:40 PM 33.0300 -117.4025 149° Southeast 325 374 13,800 -1,403 Descending Los Angeles Center
Sun 07:44:42 PM 32.9533 -117.3475 149° Southeast 323 372 12,100 -1,839 Descending Los Angeles Center
Sun 07:45:44 PM 32.8831 -117.2939 147° Southeast 307 353 10,000 -1,839 Descending Los Angeles Center
Sun 07:46:46 PM 32.8517 -117.2064 113° Southeast 280 322 8,300 -1,984 Descending Los Angeles Center
Sun 07:47:48 PM 32.8178 -117.1106 113° Southeast 274 315 5,900 -1,597 Descending Los Angeles Center
Sun 07:48:50 PM 32.7864 -117.0294 115° Southeast 272 313 5,000 -528 Descending Los Angeles Center
Sun 07:49:53 PM 32.7269 -116.9989 157° South 247 284 4,800 -484 Descending Los Angeles Center
Sun 07:50:54 PM 32.6839 -117.0264 208° Southwest 244 281 4,000 -1,292 Descending Los Angeles Center
Sun 07:52:03 PM 32.7167 -117.1000 298° West 145 167 2,000 -1,523 Descending Southern California TRACON
Sun 07:53:04 PM 32.7167 -117.1500 270° West 134 154 700 -915 Descending Southern California TRACON
Sun 07:54:01 PM 32.7308 -117.1822 298° West 136 157 200 -526 Descending Los Angeles Center

Login

Don't have an account? Register now (free) for customized features, flight alerts, and more!